sensor_id;sensor_type;location;lat;lon;timestamp;P1;durP1;ratioP1;P2;durP2;ratioP2
45338;SDS011;31071;51.478;5.710;2023-04-22T00:00:11;9.50;;;7.53;;
45338;SDS011;31071;51.478;5.710;2023-04-22T00:02:37;9.75;;;6.35;;
45338;SDS011;31071;51.478;5.710;2023-04-22T00:05:04;7.97;;;6.38;;
45338;SDS011;31071;51.478;5.710;2023-04-22T00:07:30;8.50;;;6.93;;
45338;SDS011;31071;51.478;5.710;2023-04-22T00:09:56;10.57;;;7.57;;
45338;SDS011;31071;51.478;5.710;2023-04-22T00:12:22;11.35;;;7.78;;
45338;SDS011;31071;51.478;5.710;2023-04-22T00:14:47;12.55;;;8.07;;
45338;SDS011;31071;51.478;5.710;2023-04-22T00:17:13;11.95;;;8.20;;
45338;SDS011;31071;51.478;5.710;2023-04-22T00:19:40;11.60;;;7.63;;
45338;SDS011;31071;51.478;5.710;2023-04-22T00:22:05;10.35;;;7.88;;
45338;SDS011;31071;51.478;5.710;2023-04-22T00:24:31;10.07;;;7.43;;
45338;SDS011;31071;51.478;5.710;2023-04-22T00:26:57;12.80;;;8.65;;
45338;SDS011;31071;51.478;5.710;2023-04-22T00:29:23;10.15;;;8.52;;
45338;SDS011;31071;51.478;5.710;2023-04-22T00:31:49;11.65;;;8.95;;
45338;SDS011;31071;51.478;5.710;2023-04-22T00:34:15;12.27;;;9.05;;
45338;SDS011;31071;51.478;5.710;2023-04-22T00:36:41;12.93;;;9.30;;
45338;SDS011;31071;51.478;5.710;2023-04-22T00:39:07;13.43;;;9.73;;
45338;SDS011;31071;51.478;5.710;2023-04-22T00:41:33;11.02;;;9.18;;
45338;SDS011;31071;51.478;5.710;2023-04-22T00:43:59;12.05;;;8.88;;
45338;SDS011;31071;51.478;5.710;2023-04-22T00:46:25;10.77;;;9.23;;
45338;SDS011;31071;51.478;5.710;2023-04-22T00:48:51;11.20;;;8.88;;
45338;SDS011;31071;51.478;5.710;2023-04-22T00:51:17;12.90;;;9.88;;
45338;SDS011;31071;51.478;5.710;2023-04-22T00:53:42;12.82;;;8.10;;
45338;SDS011;31071;51.478;5.710;2023-04-22T00:56:08;14.10;;;8.85;;
45338;SDS011;31071;51.478;5.710;2023-04-22T00:58:35;12.80;;;9.43;;
45338;SDS011;31071;51.478;5.710;2023-04-22T01:01:00;11.13;;;9.10;;
45338;SDS011;31071;51.478;5.710;2023-04-22T01:03:26;12.13;;;9.45;;
45338;SDS011;31071;51.478;5.710;2023-04-22T01:05:55;11.20;;;8.93;;
45338;SDS011;31071;51.478;5.710;2023-04-22T01:08:23;11.18;;;9.10;;
45338;SDS011;31071;51.478;5.710;2023-04-22T01:10:52;12.63;;;9.18;;
45338;SDS011;31071;51.478;5.710;2023-04-22T01:13:18;10.43;;;9.07;;
45338;SDS011;31071;51.478;5.710;2023-04-22T01:15:43;10.82;;;8.93;;
45338;SDS011;31071;51.478;5.710;2023-04-22T01:18:09;14.40;;;9.07;;
45338;SDS011;31071;51.478;5.710;2023-04-22T01:20:35;12.38;;;9.18;;
45338;SDS011;31071;51.478;5.710;2023-04-22T01:23:01;14.00;;;9.60;;
45338;SDS011;31071;51.478;5.710;2023-04-22T01:25:34;14.93;;;8.98;;
45338;SDS011;31071;51.478;5.710;2023-04-22T01:27:59;10.63;;;8.98;;
45338;SDS011;31071;51.478;5.710;2023-04-22T01:30:25;12.07;;;9.13;;
45338;SDS011;31071;51.478;5.710;2023-04-22T01:32:50;11.73;;;9.27;;
45338;SDS011;31071;51.478;5.710;2023-04-22T01:35:16;11.50;;;8.73;;
45338;SDS011;31071;51.478;5.710;2023-04-22T01:37:42;13.05;;;10.35;;
45338;SDS011;31071;51.478;5.710;2023-04-22T01:40:08;10.85;;;9.52;;
45338;SDS011;31071;51.478;5.710;2023-04-22T01:42:35;13.38;;;9.95;;
45338;SDS011;31071;51.478;5.710;2023-04-22T01:45:00;14.02;;;9.93;;
45338;SDS011;31071;51.478;5.710;2023-04-22T01:47:26;13.60;;;9.95;;
45338;SDS011;31071;51.478;5.710;2023-04-22T01:49:51;13.18;;;10.18;;
45338;SDS011;31071;51.478;5.710;2023-04-22T01:52:17;15.90;;;10.25;;
45338;SDS011;31071;51.478;5.710;2023-04-22T01:54:42;11.38;;;9.82;;
45338;SDS011;31071;51.478;5.710;2023-04-22T01:57:10;11.68;;;9.90;;
45338;SDS011;31071;51.478;5.710;2023-04-22T01:59:37;11.85;;;10.18;;
45338;SDS011;31071;51.478;5.710;2023-04-22T02:02:04;13.00;;;10.30;;
45338;SDS011;31071;51.478;5.710;2023-04-22T02:04:29;12.20;;;10.05;;
45338;SDS011;31071;51.478;5.710;2023-04-22T02:06:55;12.73;;;10.45;;
45338;SDS011;31071;51.478;5.710;2023-04-22T02:09:21;15.55;;;11.25;;
45338;SDS011;31071;51.478;5.710;2023-04-22T02:11:46;16.17;;;11.02;;
45338;SDS011;31071;51.478;5.710;2023-04-22T02:14:12;17.55;;;11.15;;
45338;SDS011;31071;51.478;5.710;2023-04-22T02:16:39;13.18;;;11.02;;
45338;SDS011;31071;51.478;5.710;2023-04-22T02:19:05;12.90;;;10.70;;
45338;SDS011;31071;51.478;5.710;2023-04-22T02:21:31;14.77;;;11.93;;
45338;SDS011;31071;51.478;5.710;2023-04-22T02:23:58;13.57;;;11.07;;
45338;SDS011;31071;51.478;5.710;2023-04-22T02:26:23;16.08;;;11.43;;
45338;SDS011;31071;51.478;5.710;2023-04-22T02:28:50;16.50;;;12.68;;
45338;SDS011;31071;51.478;5.710;2023-04-22T02:31:16;18.70;;;13.15;;
45338;SDS011;31071;51.478;5.710;2023-04-22T02:33:41;16.33;;;12.45;;
45338;SDS011;31071;51.478;5.710;2023-04-22T02:36:07;16.10;;;11.93;;
45338;SDS011;31071;51.478;5.710;2023-04-22T02:38:32;15.82;;;12.95;;
45338;SDS011;31071;51.478;5.710;2023-04-22T02:40:58;16.50;;;13.75;;
45338;SDS011;31071;51.478;5.710;2023-04-22T02:43:23;18.05;;;14.05;;
45338;SDS011;31071;51.478;5.710;2023-04-22T02:45:49;18.27;;;14.32;;
45338;SDS011;31071;51.478;5.710;2023-04-22T02:48:14;16.02;;;13.02;;
45338;SDS011;31071;51.478;5.710;2023-04-22T02:50:40;17.48;;;13.40;;
45338;SDS011;31071;51.478;5.710;2023-04-22T02:53:06;19.73;;;13.75;;
45338;SDS011;31071;51.478;5.710;2023-04-22T02:55:32;18.40;;;14.18;;
45338;SDS011;31071;51.478;5.710;2023-04-22T02:57:58;20.40;;;14.90;;
45338;SDS011;31071;51.478;5.710;2023-04-22T03:00:23;19.85;;;15.38;;
45338;SDS011;31071;51.478;5.710;2023-04-22T03:02:49;19.80;;;15.55;;
45338;SDS011;31071;51.478;5.710;2023-04-22T03:05:15;15.82;;;13.70;;
45338;SDS011;31071;51.478;5.710;2023-04-22T03:07:40;15.65;;;13.25;;
45338;SDS011;31071;51.478;5.710;2023-04-22T03:10:06;18.85;;;14.10;;
45338;SDS011;31071;51.478;5.710;2023-04-22T03:12:32;17.45;;;13.63;;
45338;SDS011;31071;51.478;5.710;2023-04-22T03:14:57;18.90;;;14.10;;
45338;SDS011;31071;51.478;5.710;2023-04-22T03:17:23;22.13;;;15.05;;
45338;SDS011;31071;51.478;5.710;2023-04-22T03:19:49;18.77;;;14.93;;
45338;SDS011;31071;51.478;5.710;2023-04-22T03:22:15;18.85;;;13.95;;
45338;SDS011;31071;51.478;5.710;2023-04-22T03:24:41;19.80;;;14.32;;
45338;SDS011;31071;51.478;5.710;2023-04-22T03:27:06;20.77;;;15.57;;
45338;SDS011;31071;51.478;5.710;2023-04-22T03:29:33;18.45;;;15.25;;
45338;SDS011;31071;51.478;5.710;2023-04-22T03:31:58;18.27;;;15.25;;
45338;SDS011;31071;51.478;5.710;2023-04-22T03:34:24;20.65;;;15.85;;
45338;SDS011;31071;51.478;5.710;2023-04-22T03:36:50;19.38;;;15.13;;
45338;SDS011;31071;51.478;5.710;2023-04-22T03:39:16;18.73;;;14.48;;
45338;SDS011;31071;51.478;5.710;2023-04-22T03:41:41;17.80;;;15.02;;
45338;SDS011;31071;51.478;5.710;2023-04-22T03:44:07;21.42;;;15.75;;
45338;SDS011;31071;51.478;5.710;2023-04-22T03:46:32;21.75;;;15.70;;
45338;SDS011;31071;51.478;5.710;2023-04-22T03:48:58;23.33;;;15.60;;
45338;SDS011;31071;51.478;5.710;2023-04-22T03:51:23;21.10;;;16.13;;
45338;SDS011;31071;51.478;5.710;2023-04-22T03:53:49;20.10;;;15.68;;
45338;SDS011;31071;51.478;5.710;2023-04-22T03:56:15;20.42;;;15.82;;
45338;SDS011;31071;51.478;5.710;2023-04-22T03:58:40;21.70;;;16.15;;
45338;SDS011;31071;51.478;5.710;2023-04-22T04:01:06;22.60;;;15.77;;
45338;SDS011;31071;51.478;5.710;2023-04-22T04:03:31;23.00;;;17.00;;
45338;SDS011;31071;51.478;5.710;2023-04-22T04:05:57;25.42;;;17.75;;
45338;SDS011;31071;51.478;5.710;2023-04-22T04:08:22;25.02;;;17.80;;
45338;SDS011;31071;51.478;5.710;2023-04-22T04:10:48;22.48;;;17.00;;
45338;SDS011;31071;51.478;5.710;2023-04-22T04:13:13;24.15;;;17.13;;
45338;SDS011;31071;51.478;5.710;2023-04-22T04:15:39;22.25;;;15.70;;
45338;SDS011;31071;51.478;5.710;2023-04-22T04:18:05;23.65;;;17.85;;
45338;SDS011;31071;51.478;5.710;2023-04-22T04:20:30;22.13;;;17.58;;
45338;SDS011;31071;51.478;5.710;2023-04-22T04:22:56;20.38;;;16.50;;
45338;SDS011;31071;51.478;5.710;2023-04-22T04:25:21;21.70;;;17.23;;
45338;SDS011;31071;51.478;5.710;2023-04-22T04:27:47;25.08;;;17.27;;
45338;SDS011;31071;51.478;5.710;2023-04-22T04:30:14;24.45;;;16.60;;
45338;SDS011;31071;51.478;5.710;2023-04-22T04:32:40;25.17;;;17.63;;
45338;SDS011;31071;51.478;5.710;2023-04-22T04:35:06;26.88;;;19.15;;
45338;SDS011;31071;51.478;5.710;2023-04-22T04:37:32;25.42;;;19.13;;
45338;SDS011;31071;51.478;5.710;2023-04-22T04:39:58;21.60;;;16.85;;
45338;SDS011;31071;51.478;5.710;2023-04-22T04:42:24;24.35;;;18.73;;
45338;SDS011;31071;51.478;5.710;2023-04-22T04:44:50;26.42;;;18.80;;
45338;SDS011;31071;51.478;5.710;2023-04-22T04:47:17;23.90;;;18.35;;
45338;SDS011;31071;51.478;5.710;2023-04-22T04:49:44;42.95;;;19.20;;
45338;SDS011;31071;51.478;5.710;2023-04-22T04:52:09;27.02;;;19.30;;
45338;SDS011;31071;51.478;5.710;2023-04-22T04:54:35;27.58;;;19.75;;
45338;SDS011;31071;51.478;5.710;2023-04-22T04:57:01;25.67;;;19.20;;
45338;SDS011;31071;51.478;5.710;2023-04-22T04:59:27;24.23;;;19.02;;
45338;SDS011;31071;51.478;5.710;2023-04-22T05:01:53;24.85;;;18.13;;
45338;SDS011;31071;51.478;5.710;2023-04-22T05:04:18;27.85;;;19.17;;
45338;SDS011;31071;51.478;5.710;2023-04-22T05:06:44;27.52;;;19.15;;
45338;SDS011;31071;51.478;5.710;2023-04-22T05:09:10;23.63;;;18.00;;
45338;SDS011;31071;51.478;5.710;2023-04-22T05:11:35;24.20;;;18.17;;
45338;SDS011;31071;51.478;5.710;2023-04-22T05:14:01;23.35;;;17.80;;
45338;SDS011;31071;51.478;5.710;2023-04-22T05:16:27;25.00;;;18.00;;
45338;SDS011;31071;51.478;5.710;2023-04-22T05:18:53;24.50;;;17.92;;
45338;SDS011;31071;51.478;5.710;2023-04-22T05:21:18;23.83;;;18.58;;
45338;SDS011;31071;51.478;5.710;2023-04-22T05:23:44;25.15;;;19.73;;
45338;SDS011;31071;51.478;5.710;2023-04-22T05:26:10;25.65;;;18.83;;
45338;SDS011;31071;51.478;5.710;2023-04-22T05:28:35;26.58;;;18.63;;
45338;SDS011;31071;51.478;5.710;2023-04-22T05:31:01;24.45;;;18.48;;
45338;SDS011;31071;51.478;5.710;2023-04-22T05:33:26;27.75;;;20.27;;
45338;SDS011;31071;51.478;5.710;2023-04-22T05:35:52;27.90;;;19.65;;
45338;SDS011;31071;51.478;5.710;2023-04-22T05:38:17;28.67;;;20.25;;
45338;SDS011;31071;51.478;5.710;2023-04-22T05:40:43;26.75;;;20.92;;
45338;SDS011;31071;51.478;5.710;2023-04-22T05:43:08;29.88;;;21.73;;
45338;SDS011;31071;51.478;5.710;2023-04-22T05:45:34;28.08;;;20.77;;
45338;SDS011;31071;51.478;5.710;2023-04-22T05:47:59;29.80;;;19.38;;
45338;SDS011;31071;51.478;5.710;2023-04-22T05:50:25;26.48;;;19.67;;
45338;SDS011;31071;51.478;5.710;2023-04-22T05:52:51;27.50;;;19.80;;
45338;SDS011;31071;51.478;5.710;2023-04-22T05:55:17;29.30;;;21.55;;
45338;SDS011;31071;51.478;5.710;2023-04-22T05:57:42;29.13;;;20.45;;
45338;SDS011;31071;51.478;5.710;2023-04-22T06:00:08;30.30;;;20.75;;
45338;SDS011;31071;51.478;5.710;2023-04-22T06:02:34;27.05;;;21.02;;
45338;SDS011;31071;51.478;5.710;2023-04-22T06:05:00;29.13;;;21.80;;
45338;SDS011;31071;51.478;5.710;2023-04-22T06:07:25;31.30;;;22.48;;
45338;SDS011;31071;51.478;5.710;2023-04-22T06:09:51;31.52;;;21.92;;
45338;SDS011;31071;51.478;5.710;2023-04-22T06:12:17;32.55;;;22.35;;
45338;SDS011;31071;51.478;5.710;2023-04-22T06:14:43;33.75;;;24.13;;
45338;SDS011;31071;51.478;5.710;2023-04-22T06:17:08;32.88;;;22.50;;
45338;SDS011;31071;51.478;5.710;2023-04-22T06:19:34;33.95;;;22.83;;
45338;SDS011;31071;51.478;5.710;2023-04-22T06:21:59;33.50;;;22.55;;
45338;SDS011;31071;51.478;5.710;2023-04-22T06:24:25;33.38;;;23.88;;
45338;SDS011;31071;51.478;5.710;2023-04-22T06:26:50;36.03;;;23.90;;
45338;SDS011;31071;51.478;5.710;2023-04-22T06:29:16;33.00;;;23.70;;
45338;SDS011;31071;51.478;5.710;2023-04-22T06:31:42;38.45;;;23.85;;
45338;SDS011;31071;51.478;5.710;2023-04-22T06:34:07;36.65;;;24.27;;
45338;SDS011;31071;51.478;5.710;2023-04-22T06:36:33;35.53;;;23.98;;
45338;SDS011;31071;51.478;5.710;2023-04-22T06:39:01;37.17;;;23.98;;
45338;SDS011;31071;51.478;5.710;2023-04-22T06:41:29;32.92;;;24.33;;
45338;SDS011;31071;51.478;5.710;2023-04-22T06:43:55;34.97;;;24.38;;
45338;SDS011;31071;51.478;5.710;2023-04-22T06:46:21;37.03;;;24.77;;
45338;SDS011;31071;51.478;5.710;2023-04-22T06:48:46;33.40;;;22.42;;
45338;SDS011;31071;51.478;5.710;2023-04-22T06:51:12;37.17;;;22.83;;
45338;SDS011;31071;51.478;5.710;2023-04-22T06:53:37;30.30;;;22.45;;
45338;SDS011;31071;51.478;5.710;2023-04-22T06:56:04;30.63;;;22.33;;
45338;SDS011;31071;51.478;5.710;2023-04-22T06:58:29;33.00;;;21.58;;
45338;SDS011;31071;51.478;5.710;2023-04-22T07:00:55;29.20;;;21.05;;
45338;SDS011;31071;51.478;5.710;2023-04-22T07:03:20;24.83;;;18.85;;
45338;SDS011;31071;51.478;5.710;2023-04-22T07:05:46;24.73;;;17.35;;
45338;SDS011;31071;51.478;5.710;2023-04-22T07:08:12;23.33;;;17.10;;
45338;SDS011;31071;51.478;5.710;2023-04-22T07:10:38;21.80;;;16.08;;
45338;SDS011;31071;51.478;5.710;2023-04-22T07:13:04;21.00;;;15.88;;
45338;SDS011;31071;51.478;5.710;2023-04-22T07:15:29;22.88;;;17.25;;
45338;SDS011;31071;51.478;5.710;2023-04-22T07:17:55;18.38;;;13.95;;
45338;SDS011;31071;51.478;5.710;2023-04-22T07:20:20;21.83;;;14.95;;
45338;SDS011;31071;51.478;5.710;2023-04-22T07:22:46;21.77;;;14.95;;
45338;SDS011;31071;51.478;5.710;2023-04-22T07:25:11;19.08;;;14.93;;
45338;SDS011;31071;51.478;5.710;2023-04-22T07:27:37;20.33;;;13.93;;
45338;SDS011;31071;51.478;5.710;2023-04-22T07:30:04;17.27;;;13.20;;
45338;SDS011;31071;51.478;5.710;2023-04-22T07:32:32;18.90;;;13.15;;
45338;SDS011;31071;51.478;5.710;2023-04-22T07:34:57;18.10;;;13.48;;
45338;SDS011;31071;51.478;5.710;2023-04-22T07:37:23;17.20;;;12.60;;
45338;SDS011;31071;51.478;5.710;2023-04-22T07:39:49;18.02;;;12.25;;
45338;SDS011;31071;51.478;5.710;2023-04-22T07:42:15;18.15;;;12.68;;
45338;SDS011;31071;51.478;5.710;2023-04-22T07:44:41;16.33;;;11.82;;
45338;SDS011;31071;51.478;5.710;2023-04-22T07:47:06;18.10;;;12.25;;
45338;SDS011;31071;51.478;5.710;2023-04-22T07:49:32;14.57;;;12.05;;
45338;SDS011;31071;51.478;5.710;2023-04-22T07:51:59;16.73;;;12.00;;
45338;SDS011;31071;51.478;5.710;2023-04-22T07:54:24;18.15;;;11.50;;
45338;SDS011;31071;51.478;5.710;2023-04-22T07:56:50;16.33;;;12.25;;
45338;SDS011;31071;51.478;5.710;2023-04-22T07:59:17;13.75;;;11.40;;
45338;SDS011;31071;51.478;5.710;2023-04-22T08:01:42;13.95;;;10.93;;
45338;SDS011;31071;51.478;5.710;2023-04-22T08:04:10;16.60;;;11.63;;
45338;SDS011;31071;51.478;5.710;2023-04-22T08:06:35;17.15;;;11.18;;
45338;SDS011;31071;51.478;5.710;2023-04-22T08:09:01;12.55;;;11.02;;
45338;SDS011;31071;51.478;5.710;2023-04-22T08:11:26;15.35;;;10.48;;
45338;SDS011;31071;51.478;5.710;2023-04-22T08:13:52;12.05;;;10.57;;
45338;SDS011;31071;51.478;5.710;2023-04-22T08:16:17;13.85;;;10.30;;
45338;SDS011;31071;51.478;5.710;2023-04-22T08:18:43;14.27;;;10.05;;
45338;SDS011;31071;51.478;5.710;2023-04-22T08:21:08;11.82;;;9.35;;
45338;SDS011;31071;51.478;5.710;2023-04-22T08:23:34;12.40;;;9.13;;
45338;SDS011;31071;51.478;5.710;2023-04-22T08:26:00;9.52;;;8.52;;
45338;SDS011;31071;51.478;5.710;2023-04-22T08:28:29;11.52;;;7.97;;
45338;SDS011;31071;51.478;5.710;2023-04-22T08:30:54;9.60;;;7.47;;
45338;SDS011;31071;51.478;5.710;2023-04-22T08:33:20;13.73;;;7.53;;
45338;SDS011;31071;51.478;5.710;2023-04-22T08:35:46;14.55;;;7.32;;
45338;SDS011;31071;51.478;5.710;2023-04-22T08:38:12;8.30;;;6.55;;
45338;SDS011;31071;51.478;5.710;2023-04-22T08:40:39;9.10;;;6.57;;
45338;SDS011;31071;51.478;5.710;2023-04-22T08:43:06;8.75;;;6.80;;
45338;SDS011;31071;51.478;5.710;2023-04-22T08:45:31;8.02;;;6.85;;
45338;SDS011;31071;51.478;5.710;2023-04-22T08:47:57;9.60;;;7.25;;
45338;SDS011;31071;51.478;5.710;2023-04-22T08:50:24;11.20;;;7.03;;
45338;SDS011;31071;51.478;5.710;2023-04-22T08:52:50;10.60;;;6.82;;
45338;SDS011;31071;51.478;5.710;2023-04-22T08:55:16;8.35;;;7.43;;
45338;SDS011;31071;51.478;5.710;2023-04-22T08:57:42;10.70;;;7.40;;
45338;SDS011;31071;51.478;5.710;2023-04-22T09:06:09;10.52;;;7.65;;
45338;SDS011;31071;51.478;5.710;2023-04-22T09:08:36;10.50;;;7.15;;
45338;SDS011;31071;51.478;5.710;2023-04-22T09:11:02;9.13;;;7.05;;
45338;SDS011;31071;51.478;5.710;2023-04-22T09:13:28;9.05;;;8.05;;
45338;SDS011;31071;51.478;5.710;2023-04-22T09:15:53;10.50;;;7.70;;
45338;SDS011;31071;51.478;5.710;2023-04-22T09:18:19;9.73;;;7.70;;
45338;SDS011;31071;51.478;5.710;2023-04-22T09:20:48;11.07;;;8.45;;
45338;SDS011;31071;51.478;5.710;2023-04-22T09:25:43;11.48;;;8.13;;
45338;SDS011;31071;51.478;5.710;2023-04-22T09:28:10;8.93;;;8.02;;
45338;SDS011;31071;51.478;5.710;2023-04-22T09:30:37;8.93;;;7.95;;
45338;SDS011;31071;51.478;5.710;2023-04-22T09:33:03;13.52;;;9.20;;
45338;SDS011;31071;51.478;5.710;2023-04-22T09:35:31;8.95;;;8.05;;
45338;SDS011;31071;51.478;5.710;2023-04-22T09:38:00;11.18;;;8.60;;
45338;SDS011;31071;51.478;5.710;2023-04-22T09:40:27;9.68;;;8.32;;
45338;SDS011;31071;51.478;5.710;2023-04-22T09:42:54;9.10;;;8.02;;
45338;SDS011;31071;51.478;5.710;2023-04-22T09:45:27;8.63;;;7.30;;
45338;SDS011;31071;51.478;5.710;2023-04-22T09:47:56;9.02;;;6.72;;
45338;SDS011;31071;51.478;5.710;2023-04-22T09:50:26;9.55;;;6.95;;
45338;SDS011;31071;51.478;5.710;2023-04-22T09:52:57;8.45;;;7.50;;
45338;SDS011;31071;51.478;5.710;2023-04-22T09:55:24;10.30;;;6.80;;
45338;SDS011;31071;51.478;5.710;2023-04-22T09:57:52;7.55;;;6.82;;
45338;SDS011;31071;51.478;5.710;2023-04-22T10:00:19;8.60;;;7.10;;
45338;SDS011;31071;51.478;5.710;2023-04-22T10:02:46;7.72;;;6.93;;
45338;SDS011;31071;51.478;5.710;2023-04-22T10:05:11;10.27;;;6.88;;
45338;SDS011;31071;51.478;5.710;2023-04-22T10:07:40;9.73;;;7.25;;
45338;SDS011;31071;51.478;5.710;2023-04-22T10:10:07;9.25;;;7.53;;
45338;SDS011;31071;51.478;5.710;2023-04-22T10:12:33;9.73;;;7.55;;
45338;SDS011;31071;51.478;5.710;2023-04-22T10:15:00;8.48;;;6.95;;
45338;SDS011;31071;51.478;5.710;2023-04-22T10:17:27;9.27;;;7.35;;
45338;SDS011;31071;51.478;5.710;2023-04-22T10:19:58;7.97;;;7.17;;
45338;SDS011;31071;51.478;5.710;2023-04-22T10:22:29;9.88;;;7.28;;
45338;SDS011;31071;51.478;5.710;2023-04-22T10:24:58;8.55;;;7.53;;
45338;SDS011;31071;51.478;5.710;2023-04-22T10:27:24;9.07;;;6.95;;
45338;SDS011;31071;51.478;5.710;2023-04-22T10:29:50;11.70;;;6.65;;
45338;SDS011;31071;51.478;5.710;2023-04-22T10:34:47;8.65;;;7.75;;
45338;SDS011;31071;51.478;5.710;2023-04-22T10:37:16;12.20;;;7.50;;
45338;SDS011;31071;51.478;5.710;2023-04-22T10:39:43;8.40;;;7.28;;
45338;SDS011;31071;51.478;5.710;2023-04-22T10:42:39;10.38;;;7.18;;
45338;SDS011;31071;51.478;5.710;2023-04-22T10:45:05;7.95;;;6.85;;
45338;SDS011;31071;51.478;5.710;2023-04-22T10:50:07;9.88;;;8.52;;
45338;SDS011;31071;51.478;5.710;2023-04-22T10:52:48;13.27;;;8.70;;
45338;SDS011;31071;51.478;5.710;2023-04-22T10:55:17;12.35;;;9.02;;
45338;SDS011;31071;51.478;5.710;2023-04-22T10:57:44;9.30;;;8.07;;
45338;SDS011;31071;51.478;5.710;2023-04-22T11:00:22;9.30;;;8.20;;
45338;SDS011;31071;51.478;5.710;2023-04-22T11:02:50;10.93;;;8.07;;
45338;SDS011;31071;51.478;5.710;2023-04-22T11:05:36;10.40;;;8.60;;
45338;SDS011;31071;51.478;5.710;2023-04-22T11:08:04;9.80;;;8.70;;
45338;SDS011;31071;51.478;5.710;2023-04-22T11:10:39;11.93;;;8.88;;
45338;SDS011;31071;51.478;5.710;2023-04-22T11:13:08;11.10;;;8.13;;
45338;SDS011;31071;51.478;5.710;2023-04-22T11:15:46;9.23;;;7.57;;
45338;SDS011;31071;51.478;5.710;2023-04-22T11:18:21;9.45;;;7.38;;
45338;SDS011;31071;51.478;5.710;2023-04-22T11:20:49;9.35;;;7.55;;
45338;SDS011;31071;51.478;5.710;2023-04-22T11:23:22;10.75;;;8.88;;
45338;SDS011;31071;51.478;5.710;2023-04-22T11:26:04;10.38;;;9.23;;
45338;SDS011;31071;51.478;5.710;2023-04-22T11:28:30;10.38;;;9.18;;
45338;SDS011;31071;51.478;5.710;2023-04-22T11:31:03;14.05;;;9.20;;
45338;SDS011;31071;51.478;5.710;2023-04-22T11:33:30;12.82;;;8.82;;
45338;SDS011;31071;51.478;5.710;2023-04-22T11:35:57;14.50;;;9.35;;
45338;SDS011;31071;51.478;5.710;2023-04-22T11:38:23;12.02;;;9.07;;
45338;SDS011;31071;51.478;5.710;2023-04-22T11:40:49;10.65;;;8.05;;
45338;SDS011;31071;51.478;5.710;2023-04-22T11:43:15;10.25;;;7.85;;
45338;SDS011;31071;51.478;5.710;2023-04-22T11:45:45;9.93;;;7.40;;
45338;SDS011;31071;51.478;5.710;2023-04-22T11:48:12;10.20;;;6.80;;
45338;SDS011;31071;51.478;5.710;2023-04-22T11:53:12;8.95;;;7.00;;
45338;SDS011;31071;51.478;5.710;2023-04-22T11:55:40;7.18;;;6.40;;
45338;SDS011;31071;51.478;5.710;2023-04-22T11:58:23;8.02;;;5.95;;
45338;SDS011;31071;51.478;5.710;2023-04-22T12:01:10;7.75;;;5.55;;
45338;SDS011;31071;51.478;5.710;2023-04-22T12:03:37;9.23;;;5.95;;
45338;SDS011;31071;51.478;5.710;2023-04-22T12:06:03;11.80;;;5.78;;
45338;SDS011;31071;51.478;5.710;2023-04-22T12:08:33;7.93;;;5.55;;
45338;SDS011;31071;51.478;5.710;2023-04-22T12:11:02;9.40;;;5.53;;
45338;SDS011;31071;51.478;5.710;2023-04-22T12:13:30;8.65;;;5.28;;
45338;SDS011;31071;51.478;5.710;2023-04-22T12:16:02;5.20;;;4.60;;
45338;SDS011;31071;51.478;5.710;2023-04-22T12:18:30;6.13;;;5.28;;
45338;SDS011;31071;51.478;5.710;2023-04-22T12:26:10;7.18;;;5.47;;
45338;SDS011;31071;51.478;5.710;2023-04-22T12:28:37;7.20;;;4.90;;
45338;SDS011;31071;51.478;5.710;2023-04-22T12:31:03;8.45;;;5.43;;
45338;SDS011;31071;51.478;5.710;2023-04-22T12:33:30;9.00;;;5.75;;
45338;SDS011;31071;51.478;5.710;2023-04-22T12:35:55;12.05;;;6.38;;
45338;SDS011;31071;51.478;5.710;2023-04-22T12:38:21;8.30;;;6.13;;
45338;SDS011;31071;51.478;5.710;2023-04-22T12:40:47;8.02;;;6.35;;
45338;SDS011;31071;51.478;5.710;2023-04-22T12:43:13;8.07;;;5.75;;
45338;SDS011;31071;51.478;5.710;2023-04-22T12:45:39;11.23;;;6.43;;
45338;SDS011;31071;51.478;5.710;2023-04-22T12:48:04;8.18;;;5.82;;
45338;SDS011;31071;51.478;5.710;2023-04-22T12:50:30;11.50;;;6.32;;
45338;SDS011;31071;51.478;5.710;2023-04-22T12:52:56;8.70;;;5.50;;
45338;SDS011;31071;51.478;5.710;2023-04-22T12:55:22;7.20;;;5.60;;
45338;SDS011;31071;51.478;5.710;2023-04-22T12:57:48;8.77;;;6.05;;
45338;SDS011;31071;51.478;5.710;2023-04-22T13:00:15;9.68;;;7.03;;
45338;SDS011;31071;51.478;5.710;2023-04-22T13:02:41;11.38;;;6.35;;
45338;SDS011;31071;51.478;5.710;2023-04-22T13:05:09;7.55;;;5.88;;
45338;SDS011;31071;51.478;5.710;2023-04-22T13:07:35;6.28;;;5.13;;
45338;SDS011;31071;51.478;5.710;2023-04-22T13:10:01;6.28;;;5.45;;
45338;SDS011;31071;51.478;5.710;2023-04-22T13:12:27;8.48;;;5.13;;
45338;SDS011;31071;51.478;5.710;2023-04-22T13:14:53;6.57;;;5.28;;
45338;SDS011;31071;51.478;5.710;2023-04-22T13:17:18;9.77;;;5.53;;
45338;SDS011;31071;51.478;5.710;2023-04-22T13:19:45;7.28;;;5.93;;
45338;SDS011;31071;51.478;5.710;2023-04-22T13:22:12;7.35;;;6.03;;
45338;SDS011;31071;51.478;5.710;2023-04-22T13:24:37;7.13;;;6.03;;
45338;SDS011;31071;51.478;5.710;2023-04-22T13:27:03;10.55;;;7.13;;
45338;SDS011;31071;51.478;5.710;2023-04-22T13:29:31;8.18;;;7.03;;
45338;SDS011;31071;51.478;5.710;2023-04-22T13:31:57;10.68;;;7.05;;
45338;SDS011;31071;51.478;5.710;2023-04-22T13:34:22;12.18;;;8.98;;
45338;SDS011;31071;51.478;5.710;2023-04-22T13:36:48;11.45;;;9.18;;
45338;SDS011;31071;51.478;5.710;2023-04-22T13:39:14;12.32;;;9.30;;
45338;SDS011;31071;51.478;5.710;2023-04-22T13:41:40;15.40;;;10.40;;
45338;SDS011;31071;51.478;5.710;2023-04-22T13:44:06;14.73;;;11.60;;
45338;SDS011;31071;51.478;5.710;2023-04-22T13:46:31;13.30;;;11.88;;
45338;SDS011;31071;51.478;5.710;2023-04-22T13:48:57;16.75;;;11.98;;
45338;SDS011;31071;51.478;5.710;2023-04-22T13:51:23;20.92;;;13.63;;
45338;SDS011;31071;51.478;5.710;2023-04-22T13:53:49;15.15;;;12.20;;
45338;SDS011;31071;51.478;5.710;2023-04-22T13:56:14;14.93;;;12.77;;
45338;SDS011;31071;51.478;5.710;2023-04-22T13:58:40;18.88;;;13.65;;
45338;SDS011;31071;51.478;5.710;2023-04-22T14:01:07;15.85;;;11.88;;
45338;SDS011;31071;51.478;5.710;2023-04-22T14:03:33;13.00;;;11.45;;
45338;SDS011;31071;51.478;5.710;2023-04-22T14:05:59;13.00;;;11.10;;
45338;SDS011;31071;51.478;5.710;2023-04-22T14:08:25;14.10;;;10.90;;
45338;SDS011;31071;51.478;5.710;2023-04-22T14:10:52;13.27;;;10.65;;
45338;SDS011;31071;51.478;5.710;2023-04-22T14:13:18;14.13;;;10.30;;
45338;SDS011;31071;51.478;5.710;2023-04-22T14:15:45;17.15;;;10.82;;
45338;SDS011;31071;51.478;5.710;2023-04-22T14:18:10;12.02;;;10.27;;
45338;SDS011;31071;51.478;5.710;2023-04-22T14:20:36;12.60;;;10.48;;
45338;SDS011;31071;51.478;5.710;2023-04-22T14:23:02;10.60;;;8.85;;
45338;SDS011;31071;51.478;5.710;2023-04-22T14:25:29;10.75;;;8.85;;
45338;SDS011;31071;51.478;5.710;2023-04-22T14:27:55;9.55;;;8.27;;
45338;SDS011;31071;51.478;5.710;2023-04-22T14:30:21;16.00;;;9.10;;
45338;SDS011;31071;51.478;5.710;2023-04-22T14:32:47;14.00;;;8.18;;
45338;SDS011;31071;51.478;5.710;2023-04-22T14:35:13;9.52;;;7.75;;
45338;SDS011;31071;51.478;5.710;2023-04-22T14:37:38;9.43;;;8.25;;
45338;SDS011;31071;51.478;5.710;2023-04-22T14:40:06;12.90;;;9.13;;
45338;SDS011;31071;51.478;5.710;2023-04-22T14:42:32;10.75;;;9.52;;
45338;SDS011;31071;51.478;5.710;2023-04-22T14:44:57;14.38;;;9.60;;
45338;SDS011;31071;51.478;5.710;2023-04-22T14:47:23;11.40;;;8.93;;